createdAt,value
2018-10-16T00:00:56.158Z,23.08
2018-10-16T00:01:56.189Z,23.06
2018-10-16T00:02:56.284Z,23.02
2018-10-16T00:03:56.760Z,23.05
2018-10-16T00:04:56.534Z,23.03
2018-10-16T00:05:56.557Z,23.09
2018-10-16T00:06:56.321Z,23.13
2018-10-16T00:07:56.614Z,23.08
2018-10-16T00:08:56.901Z,23.1
2018-10-16T00:09:56.670Z,23.12
2018-10-16T00:10:56.693Z,23.15
2018-10-16T00:11:56.454Z,23.13
2018-10-16T00:12:56.488Z,23.17
2018-10-16T00:13:57.042Z,23.12
2018-10-16T00:14:57.065Z,23.09
2018-10-16T00:15:56.824Z,23.13
2018-10-16T00:16:56.595Z,23.2
2018-10-16T00:17:56.625Z,23.17
2018-10-16T00:18:57.178Z,23.2
2018-10-16T00:19:56.672Z,23.09
2018-10-16T00:20:56.968Z,23.17
2018-10-16T00:21:56.995Z,23.12
2018-10-16T00:22:57.016Z,23.15
2018-10-16T00:23:57.046Z,23.12
2018-10-16T00:24:57.075Z,23.09
2018-10-16T00:25:57.098Z,23.17
2018-10-16T00:26:57.126Z,23.15
2018-10-16T00:27:57.169Z,23.08
2018-10-16T00:28:56.929Z,23.09
2018-10-16T00:29:57.207Z,23.18
2018-10-16T00:30:57.234Z,23.12
2018-10-16T00:31:57.263Z,23.13
2018-10-16T00:32:57.580Z,23.15
2018-10-16T00:33:57.319Z,23.12
2018-10-16T00:34:57.089Z,23.1
2018-10-16T00:35:57.385Z,23.17
2018-10-16T00:36:57.402Z,23.15
2018-10-16T00:37:57.433Z,23.08
2018-10-16T00:38:57.730Z,23.1
2018-10-16T00:39:57.489Z,23.15
2018-10-16T00:40:57.781Z,23.18
2018-10-16T00:41:57.542Z,23.1
2018-10-16T00:42:57.570Z,23.21
2018-10-16T00:43:57.593Z,23.12
2018-10-16T00:44:57.618Z,23.17
2018-10-16T00:45:57.655Z,23.17
2018-10-16T00:46:57.680Z,23.09
2018-10-16T00:47:57.956Z,23.09
2018-10-16T00:48:57.736Z,23.12
2018-10-16T00:49:57.758Z,23.1
2018-10-16T00:50:57.525Z,23.06
2018-10-16T00:51:58.071Z,23.06
2018-10-16T00:52:57.843Z,23.1
2018-10-16T00:53:58.134Z,23.15
2018-10-16T00:54:58.586Z,23.12
2018-10-16T00:55:57.665Z,23.12
2018-10-16T00:56:57.949Z,23.1
2018-10-16T00:57:57.975Z,23.17
2018-10-16T00:58:57.745Z,23.06
2018-10-16T00:59:58.038Z,23.1
2018-10-16T01:00:58.319Z,23.12
2018-10-16T01:01:58.345Z,23.1
2018-10-16T01:02:57.858Z,23.05
2018-10-16T01:03:58.398Z,23.1
2018-10-16T01:04:58.432Z,23.1
2018-10-16T01:05:57.936Z,23.06
2018-10-16T01:06:58.483Z,23.15
2018-10-16T01:07:58.252Z,23.13
2018-10-16T01:08:58.282Z,23.15
2018-10-16T01:09:58.314Z,23.12
2018-10-16T01:10:58.336Z,23.08
2018-10-16T01:11:58.559Z,23.15
2018-10-16T01:12:58.389Z,23.12
2018-10-16T01:13:58.423Z,23.08
2018-10-16T01:14:58.451Z,23.21
2018-10-16T01:15:58.730Z,23.08
2018-10-16T01:16:58.500Z,23.08
2018-10-16T01:17:58.563Z,23.15
2018-10-16T01:18:58.564Z,23.06
2018-10-16T01:19:58.584Z,23.09
2018-10-16T01:20:58.607Z,23.15
2018-10-16T01:21:58.896Z,23.18
2018-10-16T01:22:58.924Z,23.09
2018-10-16T01:23:58.687Z,23.1
2018-10-16T01:24:58.720Z,23.18
2018-10-16T01:25:58.750Z,23.1
2018-10-16T01:26:59.035Z,23.15
2018-10-16T01:27:58.801Z,23.13
2018-10-16T01:28:58.824Z,23.17
2018-10-16T01:29:58.859Z,23.13
2018-10-16T01:30:58.621Z,23.13
2018-10-16T01:31:59.170Z,23.12
2018-10-16T01:32:58.671Z,23.08
2018-10-16T01:33:59.227Z,23.17
2018-10-16T01:34:58.991Z,23.09
2018-10-16T01:35:59.016Z,23.18
2018-10-16T01:36:58.782Z,23.13
2018-10-16T01:37:59.069Z,23.12
2018-10-16T01:38:59.102Z,23.18
2018-10-16T01:39:59.385Z,23.17
2018-10-16T01:40:59.424Z,23.08
2018-10-16T01:41:59.184Z,23.18
2018-10-16T01:42:59.481Z,23.17
2018-10-16T01:43:59.492Z,23.13
2018-10-16T01:44:59.009Z,23.08
2018-10-16T01:45:59.024Z,23.15
2018-10-16T01:46:59.056Z,23.06
2018-10-16T01:47:59.359Z,23.08
2018-10-16T01:48:59.372Z,23.1
2018-10-16T01:49:59.135Z,23.06
2018-10-16T01:50:59.429Z,23.13
2018-10-16T01:51:59.461Z,23.09
2018-10-16T01:52:59.740Z,23.09
2018-10-16T01:53:59.512Z,23.15
2018-10-16T01:54:59.801Z,23.08
2018-10-16T01:55:59.829Z,23
2018-10-16T01:56:59.591Z,23.08
2018-10-16T01:57:59.359Z,23.09
2018-10-16T01:58:59.921Z,23.03
2018-10-16T01:59:59.679Z,23.02
2018-10-16T02:00:59.964Z,23.03
2018-10-16T02:01:59.732Z,23.05
2018-10-16T02:02:59.754Z,23.08
2018-10-16T02:03:59.521Z,23.09
2018-10-16T02:05:00.070Z,23.09
2018-10-16T02:05:59.838Z,23.08
2018-10-16T02:06:59.861Z,23.09
2018-10-16T02:07:59.887Z,23.06
2018-10-16T02:08:59.913Z,23.02
2018-10-16T02:10:00.213Z,23.06
2018-10-16T02:11:00.233Z,23.09
2018-10-16T02:12:00.008Z,23.08
2018-10-16T02:13:00.287Z,23.02
2018-10-16T02:14:00.061Z,23.09
2018-10-16T02:15:00.154Z,23.05
2018-10-16T02:16:00.368Z,23.06
2018-10-16T02:16:59.879Z,23.08
2018-10-16T02:18:00.167Z,23.03
2018-10-16T02:19:00.456Z,23.09
2018-10-16T02:19:59.961Z,23.03
2018-10-16T02:21:00.245Z,23.05
2018-10-16T02:22:00.274Z,23.06
2018-10-16T02:23:00.571Z,23.05
2018-10-16T02:24:00.607Z,23.02
2018-10-16T02:25:00.354Z,23.09
2018-10-16T02:26:00.699Z,23.06
2018-10-16T02:27:00.409Z,23
2018-10-16T02:28:00.436Z,23.03
2018-10-16T02:29:00.463Z,23
2018-10-16T02:30:00.753Z,22.93
2018-10-16T02:31:00.791Z,22.99
2018-10-16T02:32:00.817Z,23
2018-10-16T02:33:00.315Z,22.99
2018-10-16T02:34:00.865Z,22.96
2018-10-16T02:35:00.909Z,23
2018-10-16T02:36:00.914Z,23.02
2018-10-16T02:37:00.947Z,22.98
2018-10-16T02:38:00.713Z,22.98
2018-10-16T02:39:01.003Z,22.96
2018-10-16T02:40:01.038Z,22.94
2018-10-16T02:41:00.534Z,22.91
2018-10-16T02:42:00.913Z,22.9
2018-10-16T02:43:00.851Z,22.98
2018-10-16T02:44:01.134Z,22.99
2018-10-16T02:45:00.908Z,22.94
2018-10-16T02:46:01.194Z,22.91
2018-10-16T02:47:00.957Z,22.98
2018-10-16T02:48:00.727Z,22.98
2018-10-16T02:49:01.015Z,22.99
2018-10-16T02:50:01.307Z,22.91
2018-10-16T02:51:01.075Z,22.96
2018-10-16T02:52:01.099Z,22.99
2018-10-16T02:53:01.382Z,22.93
2018-10-16T02:54:01.423Z,23
2018-10-16T02:55:01.192Z,23.06
2018-10-16T02:56:01.465Z,22.93
2018-10-16T02:57:01.231Z,22.9
2018-10-16T02:58:00.999Z,22.98
2018-10-16T02:59:01.549Z,23.02
2018-10-16T03:00:01.586Z,22.9
2018-10-16T03:01:01.601Z,22.91
2018-10-16T03:02:01.369Z,22.96
2018-10-16T03:03:01.663Z,22.98
2018-10-16T03:04:01.680Z,22.96
2018-10-16T03:05:01.186Z,23.02
2018-10-16T03:06:01.735Z,22.96
2018-10-16T03:07:01.505Z,22.96
2018-10-16T03:08:01.269Z,22.96
2018-10-16T03:09:01.834Z,23
2018-10-16T03:10:01.852Z,22.9
2018-10-16T03:11:01.361Z,23
2018-10-16T03:12:01.644Z,22.93
2018-10-16T03:13:01.670Z,23
2018-10-16T03:14:01.696Z,22.9
2018-10-16T03:15:01.463Z,22.9
2018-10-16T03:16:01.486Z,22.99
2018-10-16T03:17:01.515Z,22.99
2018-10-16T03:18:01.805Z,22.96
2018-10-16T03:19:01.872Z,22.94
2018-10-16T03:20:01.862Z,22.9
2018-10-16T03:21:01.627Z,22.99
2018-10-16T03:22:01.910Z,22.93
2018-10-16T03:23:01.935Z,23.05
2018-10-16T03:24:01.969Z,22.93
2018-10-16T03:25:01.992Z,22.91
2018-10-16T03:26:02.021Z,23
2018-10-16T03:27:01.786Z,22.98
2018-10-16T03:28:02.077Z,22.88
2018-10-16T03:29:02.109Z,22.99
2018-10-16T03:30:02.396Z,22.98
2018-10-16T03:31:02.427Z,22.94
2018-10-16T03:32:02.450Z,22.96
2018-10-16T03:33:02.214Z,22.91
2018-10-16T03:34:02.499Z,22.93
2018-10-16T03:35:02.543Z,22.91
2018-10-16T03:36:02.291Z,22.88
2018-10-16T03:37:02.323Z,22.94
2018-10-16T03:38:02.610Z,22.94
2018-10-16T03:39:02.113Z,22.91
2018-10-16T03:40:02.146Z,22.88
2018-10-16T03:41:02.687Z,22.96
2018-10-16T03:42:02.456Z,22.9
2018-10-16T03:43:02.488Z,22.93
2018-10-16T03:44:02.511Z,22.93
2018-10-16T03:45:02.542Z,22.93
2018-10-16T03:46:02.829Z,22.99
2018-10-16T03:47:02.853Z,22.87
2018-10-16T03:48:02.880Z,22.93
2018-10-16T03:49:02.647Z,22.9
2018-10-16T03:50:02.934Z,22.87
2018-10-16T03:51:02.702Z,22.93
2018-10-16T03:52:02.461Z,22.91
2018-10-16T03:53:02.757Z,22.87
2018-10-16T03:54:02.786Z,22.94
2018-10-16T03:55:02.807Z,22.91
2018-10-16T03:56:02.834Z,22.93
2018-10-16T03:57:03.123Z,22.94
2018-10-16T03:58:02.890Z,22.88
2018-10-16T03:59:02.915Z,22.91
2018-10-16T04:00:02.939Z,22.94
2018-10-16T04:01:03.224Z,22.96
2018-10-16T04:02:03.260Z,22.9
2018-10-16T04:03:03.284Z,22.88
2018-10-16T04:04:02.803Z,22.83
2018-10-16T04:05:03.078Z,22.88
2018-10-16T04:06:03.369Z,22.81
2018-10-16T04:07:02.871Z,22.85
2018-10-16T04:08:03.169Z,22.83
2018-10-16T04:09:03.451Z,22.81
2018-10-16T04:10:03.488Z,22.76
2018-10-16T04:11:03.508Z,22.81
2018-10-16T04:12:03.013Z,22.78
2018-10-16T04:13:03.365Z,22.7
2018-10-16T04:14:03.481Z,22.87
2018-10-16T04:15:03.630Z,22.72
2018-10-16T04:16:03.384Z,22.76
2018-10-16T04:17:03.144Z,22.73
2018-10-16T04:18:03.410Z,22.73
2018-10-16T04:19:03.688Z,22.76
2018-10-16T04:20:03.466Z,22.85
2018-10-16T04:21:03.748Z,22.73
2018-10-16T04:22:03.515Z,22.75
2018-10-16T04:23:03.594Z,22.72
2018-10-16T04:24:03.313Z,22.83
2018-10-16T04:25:03.598Z,22.73
2018-10-16T04:26:03.622Z,22.75
2018-10-16T04:27:03.653Z,22.73
2018-10-16T04:28:03.428Z,22.83
2018-10-16T04:29:04.163Z,22.7
2018-10-16T04:30:03.746Z,22.66
2018-10-16T04:31:03.502Z,22.62
2018-10-16T04:32:03.793Z,22.6
2018-10-16T04:33:03.817Z,22.62
2018-10-16T04:34:03.585Z,22.65
2018-10-16T04:35:03.881Z,22.63
2018-10-16T04:36:03.641Z,22.57
2018-10-16T04:37:04.182Z,22.54
2018-10-16T04:38:03.955Z,22.51
2018-10-16T04:39:04.244Z,22.5
2018-10-16T04:40:03.758Z,22.45
2018-10-16T04:41:04.294Z,22.45
2018-10-16T04:42:04.318Z,22.5
2018-10-16T04:43:04.096Z,22.48
2018-10-16T04:44:04.117Z,22.47
2018-10-16T04:45:03.895Z,22.5
2018-10-16T04:46:04.434Z,22.39
2018-10-16T04:47:04.461Z,22.38
2018-10-16T04:48:04.224Z,22.36
2018-10-16T04:49:03.993Z,22.38
2018-10-16T04:50:04.281Z,22.29
2018-10-16T04:51:04.570Z,22.43
2018-10-16T04:52:04.332Z,22.44
2018-10-16T04:53:04.105Z,22.38
2018-10-16T04:54:04.143Z,22.39
2018-10-16T04:55:04.891Z,22.38
2018-10-16T04:56:04.447Z,22.39
2018-10-16T04:57:04.217Z,22.38
2018-10-16T04:58:04.501Z,22.35
2018-10-16T04:59:04.525Z,22.32
2018-10-16T05:00:04.557Z,22.35
2018-10-16T05:01:04.577Z,22.29
2018-10-16T05:02:04.606Z,22.25
2018-10-16T05:03:04.889Z,22.2
2018-10-16T05:04:04.735Z,22.25
2018-10-16T05:05:04.947Z,22.28
2018-10-16T05:06:04.971Z,22.23
2018-10-16T05:07:04.994Z,22.25
2018-10-16T05:08:05.030Z,22.32
2018-10-16T05:09:05.049Z,22.33
2018-10-16T05:10:04.566Z,22.32
2018-10-16T05:11:04.851Z,22.23
2018-10-16T05:12:04.885Z,22.22
2018-10-16T05:13:05.009Z,22.18
2018-10-16T05:14:04.931Z,22.17
2018-10-16T05:15:04.953Z,22.28
2018-10-16T05:16:04.735Z,22.18
2018-10-16T05:17:05.045Z,22.3
2018-10-16T05:18:05.037Z,22.25
2018-10-16T05:19:05.276Z,22.25
2018-10-16T05:20:05.203Z,22.28
2018-10-16T05:21:05.117Z,22.39
2018-10-16T05:22:05.405Z,22.33
2018-10-16T05:23:05.179Z,22.36
2018-10-16T05:24:04.943Z,22.39
2018-10-16T05:25:05.488Z,22.38
2018-10-16T05:26:05.264Z,22.39
2018-10-16T05:27:05.283Z,22.41
2018-10-16T05:28:05.309Z,22.41
2018-10-16T05:29:05.337Z,22.44
2018-10-16T05:30:05.359Z,22.38
2018-10-16T05:31:05.674Z,22.41
2018-10-16T05:32:05.674Z,22.38
2018-10-16T05:33:05.718Z,22.35
2018-10-16T05:34:05.473Z,22.33
2018-10-16T05:35:05.504Z,22.43
2018-10-16T05:36:05.527Z,22.47
2018-10-16T05:37:05.554Z,22.44
2018-10-16T05:38:05.575Z,22.38
2018-10-16T05:39:06.033Z,22.38
2018-10-16T05:40:05.634Z,22.44
2018-10-16T05:41:05.659Z,22.39
2018-10-16T05:42:05.942Z,22.43
2018-10-16T05:43:05.704Z,22.51
2018-10-16T05:44:05.484Z,22.44
2018-10-16T05:45:05.506Z,22.41
2018-10-16T05:46:05.538Z,22.48
2018-10-16T05:47:05.824Z,22.44
2018-10-16T05:48:05.855Z,22.48
2018-10-16T05:49:06.134Z,22.47
2018-10-16T05:50:05.905Z,22.54
2018-10-16T05:51:05.935Z,22.45
2018-10-16T05:52:05.957Z,22.43
2018-10-16T05:53:05.989Z,22.48
2018-10-16T05:54:06.053Z,22.5
2018-10-16T05:55:05.782Z,22.43
2018-10-16T05:56:05.808Z,22.54
2018-10-16T05:57:06.347Z,22.54
2018-10-16T05:58:06.122Z,22.5
2018-10-16T05:59:06.150Z,22.47
2018-10-16T06:00:06.184Z,22.54
2018-10-16T06:01:06.460Z,22.57
2018-10-16T06:02:06.232Z,22.54
2018-10-16T06:03:06.262Z,22.54
2018-10-16T06:04:06.062Z,22.57
2018-10-16T06:05:06.566Z,22.6
2018-10-16T06:06:06.081Z,22.57
2018-10-16T06:07:06.621Z,22.59
2018-10-16T06:08:06.647Z,22.57
2018-10-16T06:09:06.167Z,22.59
2018-10-16T06:10:06.445Z,22.59
2018-10-16T06:11:06.480Z,22.57
2018-10-16T06:12:06.542Z,22.62
2018-10-16T06:13:06.523Z,22.57
2018-10-16T06:14:06.300Z,22.6
2018-10-16T06:15:06.844Z,22.62
2018-10-16T06:16:07.162Z,22.57
2018-10-16T06:17:06.386Z,22.53
2018-10-16T06:18:06.665Z,22.57
2018-10-16T06:19:06.696Z,22.65
2018-10-16T06:20:06.466Z,22.59
2018-10-16T06:21:06.736Z,22.62
2018-10-16T06:22:06.775Z,22.57
2018-10-16T06:23:06.805Z,22.62
2018-10-16T06:24:07.084Z,22.63
2018-10-16T06:25:07.117Z,22.66
2018-10-16T06:26:06.882Z,22.66
2018-10-16T06:27:07.161Z,22.65
2018-10-16T06:28:06.934Z,22.66
2018-10-16T06:29:07.220Z,22.6
2018-10-16T06:30:07.375Z,22.62
2018-10-16T06:31:07.012Z,22.63
2018-10-16T06:32:07.040Z,22.69
2018-10-16T06:33:07.123Z,22.7
2018-10-16T06:34:07.358Z,22.57
2018-10-16T06:35:07.385Z,22.57
2018-10-16T06:36:07.167Z,22.68
2018-10-16T06:37:07.180Z,22.68
2018-10-16T06:38:06.952Z,22.57
2018-10-16T06:39:07.489Z,22.73
2018-10-16T06:40:07.274Z,22.7
2018-10-16T06:41:07.770Z,22.76
2018-10-16T06:42:07.063Z,22.73
2018-10-16T06:43:07.602Z,22.7
2018-10-16T06:44:07.123Z,22.75
2018-10-16T06:45:07.652Z,22.75
2018-10-16T06:46:07.422Z,22.68
2018-10-16T06:47:07.894Z,22.83
2018-10-16T06:48:07.424Z,22.76
2018-10-16T06:49:07.774Z,22.81
2018-10-16T06:50:07.277Z,22.78
2018-10-16T06:51:07.842Z,22.73
2018-10-16T06:52:07.849Z,22.78
2018-10-16T06:53:07.694Z,22.8
2018-10-16T06:54:07.895Z,22.8
2018-10-16T06:55:08.274Z,22.7
2018-10-16T06:56:07.706Z,22.84
2018-10-16T06:57:07.469Z,22.78
2018-10-16T06:58:08.017Z,22.83
2018-10-16T06:59:07.778Z,22.83
2018-10-16T07:00:07.885Z,22.85
2018-10-16T07:01:07.833Z,22.87
2018-10-16T07:02:07.605Z,22.85
2018-10-16T07:03:08.144Z,22.87
2018-10-16T07:04:08.176Z,22.88
2018-10-16T07:05:08.195Z,22.81
2018-10-16T07:06:07.978Z,22.83
2018-10-16T07:07:08.332Z,22.83
2018-10-16T07:08:08.290Z,22.84
2018-10-16T07:09:08.309Z,22.94
2018-10-16T07:10:07.818Z,22.99
2018-10-16T07:11:08.111Z,22.91
2018-10-16T07:12:08.392Z,22.93
2018-10-16T07:13:08.161Z,22.93
2018-10-16T07:14:08.460Z,22.91
2018-10-16T07:15:08.972Z,22.91
2018-10-16T07:16:08.237Z,22.96
2018-10-16T07:17:08.270Z,22.93
2018-10-16T07:18:08.565Z,22.87
2018-10-16T07:19:08.324Z,22.88
2018-10-16T07:20:08.607Z,22.91
2018-10-16T07:21:08.528Z,22.98
2018-10-16T07:22:08.465Z,22.84
2018-10-16T07:23:08.439Z,22.99
2018-10-16T07:24:08.202Z,22.98
2018-10-16T07:25:08.744Z,22.93
2018-10-16T07:26:08.518Z,22.9
2018-10-16T07:27:08.803Z,22.93
2018-10-16T07:28:08.826Z,22.87
2018-10-16T07:29:08.946Z,22.91
2018-10-16T07:30:08.816Z,22.93
2018-10-16T07:31:08.398Z,22.9
2018-10-16T07:32:08.691Z,22.88
2018-10-16T07:33:08.963Z,22.96
2018-10-16T07:34:08.487Z,22.84
2018-10-16T07:35:08.768Z,22.94
2018-10-16T07:36:08.549Z,22.91
2018-10-16T07:37:08.817Z,22.87
2018-10-16T07:38:08.801Z,22.85
2018-10-16T07:39:08.887Z,22.81
2018-10-16T07:40:09.159Z,22.93
2018-10-16T07:41:08.672Z,22.93
2018-10-16T07:42:09.215Z,22.83
2018-10-16T07:43:09.236Z,22.83
2018-10-16T07:44:09.265Z,22.9
2018-10-16T07:45:09.301Z,22.9
2018-10-16T07:46:09.059Z,22.83
2018-10-16T07:47:09.120Z,22.83
2018-10-16T07:48:09.370Z,22.83
2018-10-16T07:49:09.151Z,22.81
2018-10-16T07:50:09.180Z,22.83
2018-10-16T07:51:09.213Z,22.81
2018-10-16T07:52:09.485Z,22.84
2018-10-16T07:53:09.509Z,22.84
2018-10-16T07:54:09.278Z,22.81
2018-10-16T07:55:09.309Z,22.8
2018-10-16T07:56:09.335Z,22.85
2018-10-16T07:57:09.587Z,22.84
2018-10-16T07:58:09.392Z,22.84
2018-10-16T07:59:09.673Z,22.83
2018-10-16T08:00:09.442Z,22.84
2018-10-16T08:01:09.496Z,22.85
2018-10-16T08:02:09.504Z,22.83
2018-10-16T08:03:09.542Z,22.84
2018-10-16T08:04:09.556Z,22.81
2018-10-16T08:05:09.333Z,22.78
2018-10-16T08:06:09.608Z,22.85
2018-10-16T08:07:09.383Z,22.84
2018-10-16T08:08:09.663Z,22.83
2018-10-16T08:09:09.688Z,22.83
2018-10-16T08:10:09.454Z,22.83
2018-10-16T08:11:09.800Z,22.81
2018-10-16T08:12:10.022Z,22.84
2018-10-16T08:13:09.541Z,22.76
2018-10-16T08:14:09.835Z,22.78
2018-10-16T08:15:09.849Z,22.83
2018-10-16T08:16:09.878Z,22.84
2018-10-16T08:17:10.422Z,22.78
2018-10-16T08:18:09.680Z,22.75
2018-10-16T08:19:09.965Z,22.81
2018-10-16T08:20:10.006Z,22.81
2018-10-16T08:21:10.017Z,22.83
2018-10-16T08:22:10.047Z,22.87
2018-10-16T08:23:10.346Z,22.9
2018-10-16T08:24:10.098Z,22.81
2018-10-16T08:25:10.128Z,22.8
2018-10-16T08:26:09.892Z,22.81
2018-10-16T08:27:09.925Z,22.76
2018-10-16T08:28:10.212Z,22.87
2018-10-16T08:29:10.498Z,22.83
2018-10-16T08:30:10.624Z,22.78
2018-10-16T08:31:10.548Z,22.81
2018-10-16T08:32:10.322Z,22.88
2018-10-16T08:33:10.342Z,22.84
2018-10-16T08:34:10.942Z,22.9
2018-10-16T08:35:10.674Z,22.9
2018-10-16T08:36:10.889Z,22.84
2018-10-16T08:37:10.557Z,22.76
2018-10-16T08:38:10.732Z,22.81
2018-10-16T08:39:10.768Z,22.78
2018-10-16T08:40:10.539Z,22.85
2018-10-16T08:41:10.304Z,22.72
2018-10-16T08:42:10.589Z,22.73
2018-10-16T08:43:10.606Z,22.76
2018-10-16T08:44:10.642Z,22.84
2018-10-16T08:45:11.231Z,22.72
2018-10-16T08:46:10.690Z,22.88
2018-10-16T08:47:10.979Z,22.87
2018-10-16T08:48:10.748Z,22.8
2018-10-16T08:49:10.779Z,22.78
2018-10-16T08:50:10.544Z,22.87
2018-10-16T08:51:11.095Z,22.75
2018-10-16T08:52:10.859Z,22.87
2018-10-16T08:53:10.883Z,22.88
2018-10-16T08:54:10.909Z,22.85
2018-10-16T08:55:11.154Z,22.75
2018-10-16T08:56:10.966Z,22.73
2018-10-16T08:57:10.742Z,22.88
2018-10-16T08:58:11.026Z,22.8
2018-10-16T08:59:10.793Z,22.7
2018-10-16T09:00:10.824Z,22.78
2018-10-16T09:01:11.358Z,22.85
2018-10-16T09:02:10.874Z,22.78
2018-10-16T09:03:10.902Z,22.7
2018-10-16T09:04:11.448Z,22.78
2018-10-16T09:05:11.469Z,22.76
2018-10-16T09:06:11.497Z,22.85
2018-10-16T09:07:11.266Z,22.91
2018-10-16T09:08:11.032Z,22.75
2018-10-16T09:09:11.063Z,22.73
2018-10-16T09:10:11.345Z,22.87
2018-10-16T09:11:11.628Z,22.8
2018-10-16T09:12:11.660Z,22.83
2018-10-16T09:13:11.956Z,22.83
2018-10-16T09:14:12.129Z,22.84
2018-10-16T09:15:11.477Z,22.76
2018-10-16T09:16:11.510Z,22.8
2018-10-16T09:17:11.532Z,22.78
2018-10-16T09:18:11.825Z,22.78
2018-10-16T09:19:11.647Z,22.8
2018-10-16T09:20:11.617Z,22.73
2018-10-16T09:21:11.643Z,22.75
2018-10-16T09:22:11.923Z,22.8
2018-10-16T09:23:11.702Z,22.81
2018-10-16T09:24:11.728Z,22.83
2018-10-16T09:25:11.947Z,22.75
2018-10-16T09:26:11.528Z,22.78
2018-10-16T09:27:12.070Z,22.75
2018-10-16T09:28:12.088Z,22.75
2018-10-16T09:29:11.870Z,22.81
2018-10-16T09:30:12.147Z,22.75
2018-10-16T09:31:12.054Z,22.72
2018-10-16T09:32:11.942Z,22.87
2018-10-16T09:33:11.969Z,22.81
2018-10-16T09:34:12.255Z,22.72
2018-10-16T09:35:12.284Z,22.8
2018-10-16T09:36:12.055Z,22.8
2018-10-16T09:37:11.830Z,22.81
2018-10-16T09:38:12.357Z,22.8
2018-10-16T09:39:12.131Z,22.78
2018-10-16T09:40:12.157Z,22.7
2018-10-16T09:41:12.189Z,22.81
2018-10-16T09:42:12.479Z,22.75
2018-10-16T09:43:12.502Z,22.73
2018-10-16T09:44:12.540Z,22.76
2018-10-16T09:45:12.300Z,22.75
2018-10-16T09:46:12.069Z,22.75
2018-10-16T09:47:12.609Z,22.75
2018-10-16T09:48:12.376Z,22.75
2018-10-16T09:49:12.662Z,22.73
2018-10-16T09:50:12.432Z,22.72
2018-10-16T09:51:12.721Z,22.75
2018-10-16T09:52:12.234Z,22.8
2018-10-16T09:53:12.512Z,22.73
2018-10-16T09:54:12.539Z,22.78
2018-10-16T09:55:12.831Z,22.83
2018-10-16T09:56:12.597Z,22.78
2018-10-16T09:57:12.626Z,22.73
2018-10-16T09:58:12.913Z,22.72
2018-10-16T09:59:12.681Z,22.73
2018-10-16T10:00:12.706Z,22.84
2018-10-16T10:01:12.731Z,22.8
2018-10-16T10:02:13.028Z,22.8
2018-10-16T10:03:12.530Z,22.76
2018-10-16T10:04:13.070Z,22.78
2018-10-16T10:05:12.837Z,22.8
2018-10-16T10:06:13.120Z,22.73
2018-10-16T10:07:12.897Z,22.73
2018-10-16T10:08:12.919Z,22.8
2018-10-16T10:09:12.950Z,22.73
2018-10-16T10:10:12.972Z,22.69
2018-10-16T10:11:13.614Z,22.72
2018-10-16T10:12:13.283Z,22.68
2018-10-16T10:13:12.800Z,22.8
2018-10-16T10:14:13.345Z,22.72
2018-10-16T10:15:12.854Z,22.75
2018-10-16T10:16:12.883Z,22.7
2018-10-16T10:17:13.426Z,22.69
2018-10-16T10:18:13.193Z,22.76
2018-10-16T10:19:12.962Z,22.69
2018-10-16T10:20:13.247Z,22.66
2018-10-16T10:21:13.524Z,22.57
2018-10-16T10:22:13.303Z,22.59
2018-10-16T10:23:13.702Z,22.68
2018-10-16T10:24:13.614Z,22.65
2018-10-16T10:25:13.805Z,22.66
2018-10-16T10:26:13.665Z,22.66
2018-10-16T10:27:13.436Z,22.63
2018-10-16T10:28:13.732Z,22.63
2018-10-16T10:29:13.495Z,22.66
2018-10-16T10:30:13.726Z,22.68
2018-10-16T10:31:13.816Z,22.6
2018-10-16T10:32:13.571Z,22.62
2018-10-16T10:33:13.851Z,22.59
2018-10-16T10:34:13.883Z,22.63
2018-10-16T10:35:13.660Z,22.62
2018-10-16T10:36:13.422Z,22.59
2018-10-16T10:37:13.918Z,22.63
2018-10-16T10:38:13.736Z,22.6
2018-10-16T10:39:13.777Z,22.6
2018-10-16T10:40:13.791Z,22.59
2018-10-16T10:41:13.557Z,22.62
2018-10-16T10:42:13.930Z,22.62
2018-10-16T10:43:14.124Z,22.63
2018-10-16T10:44:13.654Z,22.57
2018-10-16T10:45:14.189Z,22.62
2018-10-16T10:46:13.703Z,22.54
2018-10-16T10:47:13.982Z,22.57
2018-10-16T10:48:13.756Z,22.57
2018-10-16T10:49:14.038Z,22.54
2018-10-16T10:50:15.105Z,22.59
2018-10-16T10:51:14.686Z,22.59
2018-10-16T10:52:14.376Z,22.57
2018-10-16T10:53:14.141Z,22.59
2018-10-16T10:54:14.428Z,22.59
2018-10-16T10:55:14.452Z,22.57
2018-10-16T10:56:14.483Z,22.54
2018-10-16T10:57:14.587Z,22.59
2018-10-16T10:58:14.531Z,22.55
2018-10-16T10:59:14.306Z,22.54
2018-10-16T11:00:14.333Z,22.54
2018-10-16T11:01:14.617Z,22.62
2018-10-16T11:02:14.389Z,22.59
2018-10-16T11:03:14.240Z,22.5
2018-10-16T11:04:14.438Z,22.45
2018-10-16T11:05:14.717Z,22.55
2018-10-16T11:06:14.491Z,22.5
2018-10-16T11:07:14.517Z,22.51
2018-10-16T11:08:14.798Z,22.59
2018-10-16T11:09:15.199Z,22.51
2018-10-16T11:10:14.345Z,22.55
2018-10-16T11:11:14.626Z,22.5
2018-10-16T11:12:14.951Z,22.45
2018-10-16T11:13:14.422Z,22.5
2018-10-16T11:14:14.450Z,22.47
2018-10-16T11:15:15.338Z,22.48
2018-10-16T11:16:14.821Z,22.53
2018-10-16T11:17:15.049Z,22.48
2018-10-16T11:18:15.070Z,22.54
2018-10-16T11:19:15.190Z,22.48
2018-10-16T11:20:14.869Z,22.54
2018-10-16T11:21:15.580Z,22.47
2018-10-16T11:22:14.928Z,22.48
2018-10-16T11:23:14.955Z,22.48
2018-10-16T11:24:14.976Z,22.45
2018-10-16T11:25:15.102Z,22.45
2018-10-16T11:26:15.038Z,22.53
2018-10-16T11:27:15.330Z,22.47
2018-10-16T11:28:15.342Z,22.51
2018-10-16T11:29:15.367Z,22.48
2018-10-16T11:30:15.300Z,22.44
2018-10-16T11:31:15.169Z,22.47
2018-10-16T11:32:14.937Z,22.43
2018-10-16T11:33:15.415Z,22.45
2018-10-16T11:34:14.996Z,22.44
2018-10-16T11:35:15.278Z,22.44
2018-10-16T11:36:15.048Z,22.5
2018-10-16T11:37:15.525Z,22.41
2018-10-16T11:38:15.100Z,22.39
2018-10-16T11:39:15.966Z,22.43
2018-10-16T11:40:15.411Z,22.38
2018-10-16T11:41:15.698Z,22.36
2018-10-16T11:42:15.722Z,22.44
2018-10-16T11:43:15.487Z,22.39
2018-10-16T11:44:15.780Z,22.35
2018-10-16T11:45:15.744Z,22.38
2018-10-16T11:46:15.830Z,22.45
2018-10-16T11:47:15.913Z,22.44
2018-10-16T11:48:15.381Z,22.43
2018-10-16T11:49:15.912Z,22.48
2018-10-16T11:50:15.475Z,22.39
2018-10-16T11:51:15.459Z,22.36
2018-10-16T11:52:15.980Z,22.39
2018-10-16T11:53:15.520Z,22.39
2018-10-16T11:54:15.798Z,22.41
2018-10-16T11:55:15.831Z,22.38
2018-10-16T11:56:16.494Z,22.43
2018-10-16T11:57:15.618Z,22.43
2018-10-16T11:58:16.155Z,22.43
2018-10-16T11:59:16.109Z,22.43
2018-10-16T12:00:15.699Z,22.36
2018-10-16T12:01:15.982Z,22.35
2018-10-16T12:02:16.742Z,22.35
2018-10-16T12:03:16.029Z,22.47
2018-10-16T12:04:16.058Z,22.26
2018-10-16T12:05:15.830Z,22.36
2018-10-16T12:06:16.521Z,22.41
2018-10-16T12:07:16.322Z,22.39
2018-10-16T12:08:16.738Z,22.41
2018-10-16T12:09:16.190Z,22.39
2018-10-16T12:10:16.486Z,22.36
2018-10-16T12:11:16.391Z,22.38
2018-10-16T12:12:16.533Z,22.38
2018-10-16T12:13:16.783Z,22.43
2018-10-16T12:14:16.947Z,22.41
2018-10-16T12:15:16.101Z,22.43
2018-10-16T12:16:16.384Z,22.43
2018-10-16T12:17:16.416Z,22.39
2018-10-16T12:18:16.434Z,22.39
2018-10-16T12:19:16.291Z,22.38
2018-10-16T12:20:16.494Z,22.41
2018-10-16T12:21:17.097Z,22.36
2018-10-16T12:22:16.546Z,22.43
2018-10-16T12:23:16.571Z,22.36
2018-10-16T12:24:16.806Z,22.39
2018-10-16T12:25:16.861Z,22.35
2018-10-16T12:26:16.648Z,22.35
2018-10-16T12:27:17.327Z,22.36
2018-10-16T12:28:16.707Z,22.33
2018-10-16T12:29:16.482Z,22.38
2018-10-16T12:30:17.020Z,22.36
2018-10-16T12:31:16.921Z,22.38
2018-10-16T12:32:17.015Z,22.33
2018-10-16T12:33:16.935Z,22.36
2018-10-16T12:34:16.610Z,22.36
2018-10-16T12:35:16.913Z,22.38
2018-10-16T12:36:17.175Z,22.39
2018-10-16T12:37:17.521Z,22.3
2018-10-16T12:38:17.115Z,22.32
2018-10-16T12:39:17.251Z,22.35
2018-10-16T12:40:16.882Z,22.32
2018-10-16T12:41:17.611Z,22.38
2018-10-16T12:42:17.616Z,22.38
2018-10-16T12:43:17.625Z,22.35
2018-10-16T12:44:17.139Z,22.39
2018-10-16T12:45:17.821Z,22.36
2018-10-16T12:46:17.750Z,22.39
2018-10-16T12:47:17.369Z,22.38
2018-10-16T12:48:17.783Z,22.36
2018-10-16T12:49:17.279Z,22.33
2018-10-16T12:50:17.721Z,22.35
2018-10-16T12:51:17.650Z,22.39
2018-10-16T12:52:17.354Z,22.26
2018-10-16T12:53:17.515Z,22.28
2018-10-16T12:55:17.697Z,22.33
2018-10-16T12:56:18.141Z,22.35
2018-10-16T12:57:18.027Z,22.32
2018-10-16T12:58:17.773Z,22.33